createdAt,value
2023-02-26T00:01:37.628Z,15.00
2023-02-26T00:04:08.742Z,12.45
2023-02-26T00:06:53.817Z,13.98
2023-02-26T00:09:26.076Z,12.75
2023-02-26T00:11:56.260Z,14.20
2023-02-26T00:14:26.197Z,13.40
2023-02-26T00:17:11.636Z,16.35
2023-02-26T00:19:41.540Z,14.98
2023-02-26T00:22:11.530Z,13.55
2023-02-26T00:24:41.066Z,14.00
2023-02-26T00:27:12.620Z,12.18
2023-02-26T00:29:42.900Z,14.10
2023-02-26T00:32:14.052Z,12.43
2023-02-26T00:34:44.750Z,12.55
2023-02-26T00:37:24.709Z,12.63
2023-02-26T00:40:03.083Z,10.13
2023-02-26T00:42:32.658Z,11.75
2023-02-26T00:45:02.503Z,18.42
2023-02-26T00:47:44.104Z,10.65
2023-02-26T00:50:18.245Z,11.63
2023-02-26T00:53:03.387Z,10.07
2023-02-26T00:55:32.826Z,13.30
2023-02-26T00:58:02.486Z,10.52
2023-02-26T01:00:31.987Z,11.07
2023-02-26T01:03:03.741Z,9.60
2023-02-26T01:05:33.382Z,10.30
2023-02-26T01:08:10.216Z,11.73
2023-02-26T01:10:40.474Z,9.32
2023-02-26T01:13:10.278Z,12.43
2023-02-26T01:15:40.311Z,11.98
2023-02-26T01:18:17.240Z,11.50
2023-02-26T01:20:49.770Z,10.60
2023-02-26T01:23:24.288Z,10.57
2023-02-26T01:25:58.991Z,9.60
2023-02-26T01:28:29.461Z,9.57
2023-02-26T01:31:05.612Z,10.43
2023-02-26T01:33:42.113Z,8.00
2023-02-26T01:36:18.112Z,9.85
2023-02-26T01:38:59.074Z,10.10
2023-02-26T01:41:34.430Z,7.78
2023-02-26T01:44:15.678Z,8.85
2023-02-26T01:47:08.038Z,8.98
2023-02-26T01:49:39.958Z,7.28
2023-02-26T01:52:57.689Z,9.50
2023-02-26T01:55:28.601Z,8.55
2023-02-26T01:58:02.490Z,8.15
2023-02-26T02:00:32.821Z,9.57
2023-02-26T02:03:02.878Z,10.77
2023-02-26T02:05:42.970Z,9.77
2023-02-26T02:08:13.852Z,11.15
2023-02-26T02:10:46.912Z,9.15
2023-02-26T02:13:27.023Z,8.48
2023-02-26T02:16:06.349Z,7.32
2023-02-26T02:18:43.638Z,9.75
2023-02-26T02:21:36.557Z,9.98
2023-02-26T02:24:13.252Z,7.90
2023-02-26T02:26:55.318Z,11.00
2023-02-26T02:29:55.960Z,9.70
2023-02-26T02:32:31.419Z,9.43
2023-02-26T02:35:08.590Z,9.15
2023-02-26T02:37:43.048Z,11.68
2023-02-26T02:40:16.984Z,11.15
2023-02-26T02:42:52.610Z,10.60
2023-02-26T02:45:27.394Z,8.27
2023-02-26T02:48:05.372Z,9.25
2023-02-26T02:50:41.610Z,10.85
2023-02-26T02:53:15.222Z,10.82
2023-02-26T02:58:22.616Z,11.95
2023-02-26T03:00:56.175Z,10.57
2023-02-26T03:03:32.863Z,10.13
2023-02-26T03:06:02.911Z,8.48
2023-02-26T03:08:38.534Z,12.10
2023-02-26T03:11:07.850Z,10.70
2023-02-26T03:13:39.600Z,8.93
2023-02-26T03:16:31.013Z,8.52
2023-02-26T03:19:12.996Z,10.48
2023-02-26T03:21:51.276Z,9.95
2023-02-26T03:24:49.919Z,9.30
2023-02-26T03:27:23.850Z,9.60
2023-02-26T03:30:00.433Z,9.30
2023-02-26T03:32:35.750Z,7.65
2023-02-26T03:35:13.136Z,9.05
2023-02-26T03:37:46.724Z,7.93
2023-02-26T03:40:20.752Z,9.57
2023-02-26T03:42:55.341Z,10.00
2023-02-26T03:45:28.401Z,9.45
2023-02-26T03:47:59.902Z,8.63
2023-02-26T03:50:35.252Z,8.35
2023-02-26T03:53:32.120Z,8.50
2023-02-26T03:56:19.222Z,10.57
2023-02-26T03:58:54.814Z,9.68
2023-02-26T04:01:49.164Z,10.02
2023-02-26T04:04:27.131Z,8.95
2023-02-26T04:06:59.017Z,9.35
2023-02-26T04:09:28.416Z,12.18
2023-02-26T04:11:59.828Z,9.73
2023-02-26T04:14:29.749Z,9.95
2023-02-26T04:16:59.560Z,9.30
2023-02-26T04:19:29.312Z,9.65
2023-02-26T04:22:00.362Z,9.43
2023-02-26T04:24:29.592Z,8.57
2023-02-26T04:27:05.617Z,11.32
2023-02-26T04:29:36.063Z,11.77
2023-02-26T04:32:05.987Z,11.27
2023-02-26T04:34:35.535Z,13.25
2023-02-26T04:37:06.743Z,11.73
2023-02-26T04:39:36.758Z,10.35
2023-02-26T04:42:06.824Z,10.93
2023-02-26T04:44:36.630Z,13.70
2023-02-26T04:47:06.335Z,11.23
2023-02-26T04:49:38.845Z,15.65
2023-02-26T04:52:10.165Z,15.55
2023-02-26T04:54:40.860Z,14.00
2023-02-26T04:57:11.565Z,13.48
2023-02-26T04:59:41.341Z,13.63
2023-02-26T05:02:12.332Z,13.10
2023-02-26T05:04:44.239Z,13.40
2023-02-26T05:07:15.496Z,14.52
2023-02-26T05:09:45.268Z,13.02
2023-02-26T05:12:15.063Z,12.40
2023-02-26T05:14:44.892Z,12.07
2023-02-26T05:17:14.183Z,10.02
2023-02-26T05:19:44.202Z,8.95
2023-02-26T05:22:15.131Z,10.50
2023-02-26T05:24:45.074Z,11.07
2023-02-26T05:27:14.458Z,9.05
2023-02-26T05:29:48.048Z,8.88
2023-02-26T05:32:17.896Z,9.82
2023-02-26T05:34:47.537Z,10.02
2023-02-26T05:37:18.572Z,8.32
2023-02-26T05:39:48.079Z,11.05
2023-02-26T05:42:17.578Z,9.93
2023-02-26T05:44:47.482Z,8.27
2023-02-26T05:47:16.964Z,8.75
2023-02-26T05:49:46.517Z,10.27
2023-02-26T05:52:17.383Z,8.80
2023-02-26T05:54:46.889Z,9.27
2023-02-26T05:57:16.595Z,11.48
2023-02-26T05:59:46.116Z,11.35
2023-02-26T06:02:15.707Z,8.82
2023-02-26T06:04:45.158Z,9.77
2023-02-26T06:07:14.906Z,11.32
2023-02-26T06:09:45.789Z,11.02
2023-02-26T06:12:15.359Z,10.75
2023-02-26T06:14:44.957Z,8.48
2023-02-26T06:17:14.582Z,13.57
2023-02-26T06:19:44.888Z,8.98
2023-02-26T06:22:14.705Z,11.95
2023-02-26T06:24:45.742Z,11.40
2023-02-26T06:27:15.183Z,10.80
2023-02-26T06:29:44.977Z,11.43
2023-02-26T06:32:14.498Z,12.00
2023-02-26T06:34:44.082Z,13.65
2023-02-26T06:37:13.379Z,11.00
2023-02-26T06:39:43.184Z,11.82
2023-02-26T06:42:13.988Z,9.57
2023-02-26T06:44:43.436Z,10.80
2023-02-26T06:47:13.145Z,12.48
2023-02-26T06:49:42.710Z,15.07
2023-02-26T06:52:12.488Z,12.27
2023-02-26T06:54:42.194Z,13.38
2023-02-26T06:57:11.893Z,15.63
2023-02-26T06:59:43.094Z,11.82
2023-02-26T07:02:18.967Z,12.60
2023-02-26T07:04:50.773Z,12.60
2023-02-26T07:07:20.843Z,11.95
2023-02-26T07:09:50.217Z,10.95
2023-02-26T07:12:19.522Z,11.73
2023-02-26T07:14:53.078Z,13.07
2023-02-26T07:17:22.585Z,10.18
2023-02-26T07:19:53.943Z,11.45
2023-02-26T07:22:25.158Z,10.30
2023-02-26T07:24:56.251Z,11.15
2023-02-26T07:27:35.005Z,12.23
2023-02-26T07:30:08.773Z,11.43
2023-02-26T07:35:08.484Z,11.10
2023-02-26T07:37:38.151Z,12.25
2023-02-26T07:40:08.920Z,10.65
2023-02-26T07:42:38.316Z,11.23
2023-02-26T07:45:12.562Z,10.75
2023-02-26T07:47:42.556Z,12.00
2023-02-26T07:50:15.732Z,10.38
2023-02-26T07:52:46.360Z,12.82
2023-02-26T07:55:16.018Z,11.15
2023-02-26T07:57:46.082Z,14.60
2023-02-26T08:00:22.349Z,11.40
2023-02-26T08:03:00.770Z,11.60
2023-02-26T08:05:30.780Z,11.30
2023-02-26T08:08:02.142Z,13.73
2023-02-26T08:10:35.437Z,12.35
2023-02-26T08:13:15.642Z,13.40
2023-02-26T08:15:53.759Z,12.20
2023-02-26T08:18:26.098Z,10.63
2023-02-26T08:20:55.564Z,14.95
2023-02-26T08:23:27.886Z,14.10
2023-02-26T08:26:02.749Z,13.40
2023-02-26T08:28:33.208Z,12.50
2023-02-26T08:31:04.675Z,11.57
2023-02-26T08:33:35.021Z,11.70
2023-02-26T08:36:04.511Z,9.38
2023-02-26T08:38:34.145Z,10.02
2023-02-26T08:41:03.759Z,10.95
2023-02-26T08:43:33.341Z,9.85
2023-02-26T08:46:03.981Z,9.82
2023-02-26T08:48:33.833Z,10.13
2023-02-26T08:51:03.364Z,11.88
2023-02-26T08:53:32.899Z,10.35
2023-02-26T08:56:02.810Z,10.88
2023-02-26T08:58:32.538Z,11.50
2023-02-26T09:01:03.005Z,9.80
2023-02-26T09:03:32.757Z,9.75
2023-02-26T09:06:02.220Z,11.65
2023-02-26T09:08:34.849Z,10.75
2023-02-26T09:11:05.852Z,11.00
2023-02-26T09:13:35.300Z,13.18
2023-02-26T09:16:07.558Z,10.50
2023-02-26T09:18:37.543Z,12.02
2023-02-26T09:21:07.186Z,10.88
2023-02-26T09:23:36.346Z,9.85
2023-02-26T09:26:08.963Z,12.38
2023-02-26T09:28:38.886Z,12.00
2023-02-26T09:31:10.088Z,10.02
2023-02-26T09:33:40.750Z,11.40
2023-02-26T09:36:10.734Z,11.48
2023-02-26T09:38:44.472Z,10.45
2023-02-26T09:41:21.351Z,10.02
2023-02-26T09:44:07.197Z,9.52
2023-02-26T09:46:46.990Z,9.52
2023-02-26T09:49:26.239Z,11.13
2023-02-26T09:52:02.268Z,11.50
2023-02-26T09:54:38.158Z,10.80
2023-02-26T09:57:13.659Z,12.15
2023-02-26T09:59:43.495Z,12.23
2023-02-26T10:02:23.262Z,10.05
2023-02-26T10:05:06.634Z,11.52
2023-02-26T10:07:45.534Z,8.73
2023-02-26T10:10:24.410Z,10.48
2023-02-26T10:12:57.105Z,10.40
2023-02-26T10:15:30.395Z,10.82
2023-02-26T10:18:10.877Z,11.27
2023-02-26T10:20:47.508Z,12.57
2023-02-26T10:23:23.191Z,10.35
2023-02-26T10:25:57.314Z,10.48
2023-02-26T10:28:43.093Z,7.93
2023-02-26T10:31:20.091Z,8.80
2023-02-26T10:33:59.681Z,8.05
2023-02-26T10:37:19.694Z,9.77
2023-02-26T10:39:53.631Z,9.60
2023-02-26T10:42:27.706Z,9.38
2023-02-26T10:45:10.730Z,9.43
2023-02-26T10:47:50.946Z,9.07
2023-02-26T10:50:23.835Z,8.43
2023-02-26T10:52:54.784Z,9.77
2023-02-26T10:55:34.527Z,7.43
2023-02-26T10:58:07.043Z,9.27
2023-02-26T11:00:37.267Z,11.20
2023-02-26T11:03:08.921Z,11.82
2023-02-26T11:05:41.079Z,11.73
2023-02-26T11:08:16.615Z,7.63
2023-02-26T11:10:55.060Z,9.43
2023-02-26T11:13:27.025Z,10.57
2023-02-26T11:15:59.447Z,10.35
2023-02-26T11:18:31.695Z,8.93
2023-02-26T11:21:02.449Z,8.93
2023-02-26T11:23:34.051Z,9.45
2023-02-26T11:26:21.017Z,9.52
2023-02-26T11:28:54.985Z,9.73
2023-02-26T11:31:29.083Z,9.70
2023-02-26T11:34:03.373Z,8.55
2023-02-26T11:36:38.628Z,7.72
2023-02-26T11:39:15.537Z,8.88
2023-02-26T11:41:48.417Z,10.43
2023-02-26T11:44:22.297Z,8.27
2023-02-26T11:46:57.669Z,10.82
2023-02-26T11:49:29.421Z,12.90
2023-02-26T11:52:21.247Z,9.13
2023-02-26T11:55:06.067Z,6.55
2023-02-26T11:57:35.894Z,7.90
2023-02-26T12:00:19.880Z,8.68
2023-02-26T12:02:49.387Z,8.07
2023-02-26T12:05:19.766Z,8.90
2023-02-26T12:07:50.815Z,12.43
2023-02-26T12:10:25.577Z,11.70
2023-02-26T12:13:06.481Z,11.45
2023-02-26T12:15:40.989Z,13.52
2023-02-26T12:18:31.908Z,11.65
2023-02-26T12:21:17.077Z,11.65
2023-02-26T12:24:37.201Z,10.20
2023-02-26T12:27:22.540Z,8.35
2023-02-26T12:30:05.110Z,11.40
2023-02-26T12:32:52.816Z,11.38
2023-02-26T12:35:44.949Z,11.63
2023-02-26T12:38:22.931Z,10.82
2023-02-26T12:41:09.792Z,11.70
2023-02-26T12:43:48.907Z,10.60
2023-02-26T12:46:35.999Z,10.80
2023-02-26T12:49:25.182Z,9.73
2023-02-26T12:52:16.312Z,12.20
2023-02-26T12:55:06.676Z,11.88
2023-02-26T12:57:51.952Z,10.13
2023-02-26T13:00:45.755Z,10.05
2023-02-26T13:03:37.034Z,11.48
2023-02-26T13:06:32.067Z,10.98
2023-02-26T13:09:09.237Z,10.48
2023-02-26T13:11:52.016Z,8.90
2023-02-26T13:14:34.933Z,11.02
2023-02-26T13:17:14.130Z,11.32
2023-02-26T13:19:53.949Z,13.70
2023-02-26T13:22:29.641Z,9.93
2023-02-26T13:25:03.622Z,11.18
2023-02-26T13:27:38.190Z,8.70
2023-02-26T13:30:25.325Z,10.68
2023-02-26T13:32:59.390Z,11.75
2023-02-26T13:35:33.638Z,13.68
2023-02-26T13:38:08.766Z,12.82
2023-02-26T13:40:49.304Z,12.68
2023-02-26T13:43:44.705Z,12.35
2023-02-26T13:46:29.770Z,12.63
2023-02-26T13:49:10.352Z,11.15
2023-02-26T13:51:43.210Z,11.55
2023-02-26T13:54:35.171Z,11.27
2023-02-26T13:57:22.882Z,10.63
2023-02-26T14:00:00.571Z,9.68
2023-02-26T14:02:39.520Z,11.25
2023-02-26T14:05:30.562Z,15.38
2023-02-26T14:08:23.334Z,11.00
2023-02-26T14:10:59.494Z,14.57
2023-02-26T14:13:37.644Z,10.82
2023-02-26T14:16:14.296Z,14.38
2023-02-26T14:18:52.001Z,12.43
2023-02-26T14:21:49.713Z,10.73
2023-02-26T14:24:24.520Z,10.77
2023-02-26T14:27:24.498Z,12.70
2023-02-26T14:30:05.316Z,13.48
2023-02-26T14:32:36.545Z,11.82
2023-02-26T14:35:11.462Z,12.50
2023-02-26T14:37:42.959Z,13.10
2023-02-26T14:40:19.173Z,13.32
2023-02-26T14:42:53.187Z,13.57
2023-02-26T14:45:31.747Z,11.23
2023-02-26T14:48:05.106Z,13.88
2023-02-26T14:50:42.962Z,13.23
2023-02-26T14:53:38.601Z,14.43
2023-02-26T14:56:16.218Z,13.73
2023-02-26T14:59:01.784Z,12.80
2023-02-26T15:01:46.420Z,12.23
2023-02-26T15:04:45.368Z,12.20
2023-02-26T15:07:35.556Z,16.15
2023-02-26T15:10:18.506Z,13.07
2023-02-26T15:13:05.304Z,13.23
2023-02-26T15:15:44.531Z,12.40
2023-02-26T15:18:37.082Z,13.40
2023-02-26T15:21:15.235Z,13.30
2023-02-26T15:23:48.983Z,15.55
2023-02-26T15:28:53.588Z,14.85
2023-02-26T15:31:30.559Z,17.88
2023-02-26T15:34:03.177Z,21.45
2023-02-26T15:36:33.371Z,18.15
2023-02-26T15:39:10.476Z,18.23
2023-02-26T15:41:49.920Z,17.27
2023-02-26T15:44:26.514Z,16.45
2023-02-26T15:47:00.503Z,16.27
2023-02-26T15:49:35.996Z,17.30
2023-02-26T15:52:08.467Z,20.00
2023-02-26T15:54:43.368Z,18.20
2023-02-26T15:57:16.098Z,14.90
2023-02-26T15:59:47.595Z,22.08
2023-02-26T16:02:21.353Z,15.95
2023-02-26T16:07:23.691Z,15.80
2023-02-26T16:09:55.265Z,18.55
2023-02-26T16:12:36.452Z,16.85
2023-02-26T16:15:12.509Z,16.35
2023-02-26T16:17:46.122Z,15.50
2023-02-26T16:20:20.727Z,14.70
2023-02-26T16:22:52.260Z,15.60
2023-02-26T16:25:30.278Z,16.83
2023-02-26T16:28:04.387Z,14.80
2023-02-26T16:30:36.664Z,16.05
2023-02-26T16:33:10.908Z,15.45
2023-02-26T16:35:43.893Z,15.50
2023-02-26T16:38:20.672Z,18.90
2023-02-26T16:40:58.676Z,16.33
2023-02-26T16:43:51.520Z,17.08
2023-02-26T16:46:24.886Z,14.90
2023-02-26T16:48:56.673Z,16.98
2023-02-26T16:51:30.190Z,16.50
2023-02-26T16:54:03.283Z,21.48
2023-02-26T16:56:35.878Z,19.50
2023-02-26T16:59:13.423Z,19.65
2023-02-26T17:01:52.250Z,17.23
2023-02-26T17:04:24.901Z,16.00
2023-02-26T17:06:56.275Z,17.05
2023-02-26T17:09:39.282Z,16.65
2023-02-26T17:12:15.705Z,16.98
2023-02-26T17:14:50.037Z,17.83
2023-02-26T17:17:19.915Z,18.27
2023-02-26T17:19:49.977Z,19.10
2023-02-26T17:22:25.846Z,18.80
2023-02-26T17:24:56.320Z,16.83
2023-02-26T17:27:30.201Z,15.80
2023-02-26T17:30:07.134Z,19.27
2023-02-26T17:32:36.732Z,17.02
2023-02-26T17:35:08.736Z,20.05
2023-02-26T17:37:39.810Z,18.75
2023-02-26T17:40:20.730Z,18.42
2023-02-26T17:42:50.773Z,18.33
2023-02-26T17:45:22.924Z,20.20
2023-02-26T17:47:53.184Z,21.38
2023-02-26T17:50:36.632Z,20.80
2023-02-26T17:53:08.018Z,18.92
2023-02-26T17:55:39.461Z,18.73
2023-02-26T17:58:15.820Z,19.23
2023-02-26T18:00:49.913Z,28.52
2023-02-26T18:03:20.434Z,16.00
2023-02-26T18:05:52.217Z,18.40
2023-02-26T18:08:24.058Z,16.60
2023-02-26T18:10:55.070Z,16.20
2023-02-26T18:13:24.984Z,19.85
2023-02-26T18:15:58.351Z,21.08
2023-02-26T18:18:29.253Z,19.27
2023-02-26T18:20:58.787Z,16.67
2023-02-26T18:23:28.788Z,17.40
2023-02-26T18:25:59.588Z,16.20
2023-02-26T18:28:30.170Z,15.82
2023-02-26T18:31:09.082Z,17.60
2023-02-26T18:33:41.377Z,17.27
2023-02-26T18:36:18.350Z,16.20
2023-02-26T18:38:49.140Z,16.58
2023-02-26T18:41:19.191Z,17.67
2023-02-26T18:43:49.066Z,20.42
2023-02-26T18:46:20.486Z,16.00
2023-02-26T18:48:50.810Z,18.80
2023-02-26T18:51:20.454Z,17.60
2023-02-26T18:53:51.650Z,18.73
2023-02-26T18:56:40.107Z,20.45
2023-02-26T18:59:09.708Z,16.88
2023-02-26T19:01:40.766Z,19.05
2023-02-26T19:04:10.569Z,19.30
2023-02-26T19:06:40.352Z,19.50
2023-02-26T19:09:10.600Z,20.63
2023-02-26T19:11:40.232Z,18.17
2023-02-26T19:14:10.573Z,22.38
2023-02-26T19:16:43.816Z,21.40
2023-02-26T19:19:13.172Z,20.85
2023-02-26T19:21:43.226Z,21.38
2023-02-26T19:24:14.286Z,21.60
2023-02-26T19:26:44.956Z,19.27
2023-02-26T19:29:17.262Z,20.45
2023-02-26T19:31:48.578Z,21.83
2023-02-26T19:34:19.924Z,17.65
2023-02-26T19:36:50.076Z,19.48
2023-02-26T19:39:20.284Z,17.05
2023-02-26T19:41:53.890Z,19.10
2023-02-26T19:44:24.419Z,22.88
2023-02-26T19:46:55.751Z,18.02
2023-02-26T19:49:25.357Z,22.10
2023-02-26T19:51:57.241Z,17.67
2023-02-26T19:54:27.332Z,18.40
2023-02-26T19:56:59.333Z,15.35
2023-02-26T19:59:29.816Z,16.65
2023-02-26T20:02:01.179Z,15.55
2023-02-26T20:04:30.556Z,16.58
2023-02-26T20:07:01.051Z,16.63
2023-02-26T20:09:36.342Z,18.42
2023-02-26T20:12:07.139Z,19.20
2023-02-26T20:14:38.707Z,21.52
2023-02-26T20:17:13.370Z,20.90
2023-02-26T20:20:15.414Z,23.42
2023-02-26T20:22:46.343Z,21.35
2023-02-26T20:25:16.276Z,20.65
2023-02-26T20:27:47.076Z,19.83
2023-02-26T20:30:17.793Z,17.90
2023-02-26T20:33:17.653Z,18.33
2023-02-26T20:35:55.924Z,16.58
2023-02-26T20:38:30.199Z,17.00
2023-02-26T20:41:00.309Z,16.63
2023-02-26T20:43:30.521Z,14.45
2023-02-26T20:46:00.973Z,15.45
2023-02-26T20:48:32.258Z,13.73
2023-02-26T20:51:02.694Z,16.70
2023-02-26T20:53:32.724Z,15.20
2023-02-26T20:56:02.465Z,14.15
2023-02-26T20:58:32.537Z,12.98
2023-02-26T21:01:02.660Z,12.43
2023-02-26T21:03:34.159Z,12.40
2023-02-26T21:06:03.837Z,11.98
2023-02-26T21:08:34.996Z,11.57
2023-02-26T21:11:04.802Z,11.70
2023-02-26T21:13:34.370Z,10.95
2023-02-26T21:16:04.551Z,10.45
2023-02-26T21:18:35.513Z,10.80
2023-02-26T21:21:05.362Z,10.57
2023-02-26T21:23:35.418Z,9.75
2023-02-26T21:26:05.192Z,10.80
2023-02-26T21:28:34.691Z,10.98
2023-02-26T21:31:04.878Z,12.85
2023-02-26T21:33:36.705Z,10.70
2023-02-26T21:36:07.503Z,11.52
2023-02-26T21:38:37.077Z,11.90
2023-02-26T21:41:07.196Z,10.15
2023-02-26T21:43:37.152Z,7.70
2023-02-26T21:46:07.761Z,7.53
2023-02-26T21:48:52.065Z,7.38
2023-02-26T21:51:21.670Z,8.43
2023-02-26T21:53:51.422Z,7.32
2023-02-26T21:56:20.878Z,7.75
2023-02-26T21:58:50.506Z,7.78
2023-02-26T22:01:20.325Z,8.27
2023-02-26T22:03:51.287Z,11.82
2023-02-26T22:06:21.010Z,5.72
2023-02-26T22:08:50.274Z,8.65
2023-02-26T22:11:19.779Z,7.30
2023-02-26T22:13:49.446Z,7.25
2023-02-26T22:16:19.133Z,6.53
2023-02-26T22:18:48.688Z,8.05
2023-02-26T22:21:20.071Z,8.20
2023-02-26T22:23:49.965Z,9.95
2023-02-26T22:26:19.507Z,9.13
2023-02-26T22:28:48.963Z,7.20
2023-02-26T22:31:18.280Z,8.23
2023-02-26T22:33:51.003Z,8.05
2023-02-26T22:36:21.769Z,7.40
2023-02-26T22:38:51.538Z,8.60
2023-02-26T22:41:22.082Z,8.60
2023-02-26T22:43:53.941Z,11.98
2023-02-26T22:46:24.673Z,9.95
2023-02-26T22:48:54.184Z,8.57
2023-02-26T22:51:25.315Z,9.57
2023-02-26T22:53:55.446Z,8.85
2023-02-26T22:56:25.026Z,8.15
2023-02-26T22:58:55.663Z,12.20
2023-02-26T23:01:25.941Z,10.77
2023-02-26T23:03:55.677Z,10.20
2023-02-26T23:06:26.863Z,9.75
2023-02-26T23:08:56.242Z,10.23
2023-02-26T23:11:25.779Z,9.70
2023-02-26T23:13:56.248Z,10.15
2023-02-26T23:16:28.810Z,10.15
2023-02-26T23:18:58.230Z,7.00
2023-02-26T23:21:30.991Z,9.15
2023-02-26T23:24:00.608Z,7.97
2023-02-26T23:26:30.143Z,7.38
2023-02-26T23:28:59.767Z,7.93
2023-02-26T23:31:29.946Z,6.95
2023-02-26T23:33:59.801Z,8.07
2023-02-26T23:36:30.383Z,6.97
2023-02-26T23:38:59.575Z,8.70
2023-02-26T23:41:28.733Z,5.70
2023-02-26T23:43:58.782Z,7.50
2023-02-26T23:46:28.833Z,8.77
2023-02-26T23:48:58.551Z,8.02
2023-02-26T23:51:29.328Z,8.70
2023-02-26T23:53:59.275Z,8.52
2023-02-26T23:56:28.907Z,7.68
2023-02-26T23:58:59.000Z,8.65
